Time;durP1;ratioP1;P1;durP2;ratioP2;P2;SDS_P1;SDS_P2;PMS_P1;PMS_P2;Temp;Humidity;BMP_temperature;BMP_pressure;BME280_temperature;BME280_humidity;BME280_pressure;Samples;Min_cycle;Max_cycle;Signal;HPM_P1;HPM_P2
2021/07/20 00:01:23;;;;;;;14.47;13.00;;;14.80;99.90;;;;;;4931082;28;20435;-90
2021/07/20 00:03:49;;;;;;;14.07;12.57;;;14.80;99.90;;;;;;4943437;29;20517;-89
2021/07/20 00:06:17;;;;;;;18.63;13.63;;;;;;;;;;4944706;29;20455;-89
2021/07/20 00:08:46;;;;;;;13.57;12.17;;;14.30;99.90;;;;;;4946604;29;20435;-89
2021/07/20 00:11:17;;;;;;;16.20;13.07;;;14.70;99.90;;;;;;4947109;28;20419;-90
2021/07/20 00:13:43;;;;;;;15.20;11.80;;;14.80;99.90;;;;;;4947276;29;20435;-90
2021/07/20 00:16:14;;;;;;;15.77;12.60;;;14.80;99.90;;;;;;4955887;28;20426;-89
2021/07/20 00:18:43;;;;;;;13.57;11.80;;;14.80;99.90;;;;;;4957087;28;20171;-89
2021/07/20 00:21:09;;;;;;;13.87;12.53;;;14.80;99.90;;;;;;4947671;29;20868;-89
2021/07/20 00:23:44;;;;;;;14.63;13.00;;;14.70;99.90;;;;;;4948537;29;20442;-90
2021/07/20 00:26:13;;;;;;;14.30;11.60;;;14.60;99.90;;;;;;4951008;28;20438;-88
2021/07/20 00:28:40;;;;;;;14.10;12.60;;;14.70;99.90;;;;;;4954547;29;20400;-89
2021/07/20 00:31:06;;;;;;;15.00;11.97;;;14.60;99.90;;;;;;4949634;28;20431;-89
2021/07/20 00:33:33;;;;;;;14.50;12.40;;;;;;;;;;4943976;29;20423;-89
2021/07/20 00:36:00;;;;;;;13.13;11.73;;;;;;;;;;4943297;29;20572;-89
2021/07/20 00:38:26;;;;;;;14.60;12.93;;;14.80;99.90;;;;;;4943119;29;20423;-89
2021/07/20 00:40:52;;;;;;;17.17;12.93;;;14.70;99.90;;;;;;4942625;29;20495;-89
2021/07/20 00:43:18;;;;;;;12.47;11.20;;;14.00;99.90;;;;;;4945928;29;20206;-88
2021/07/20 00:45:44;;;;;;;14.70;13.20;;;14.50;99.90;;;;;;4947006;29;20423;-88
2021/07/20 00:48:10;;;;;;;16.53;11.87;;;14.40;99.90;;;;;;4947266;29;20812;-88
2021/07/20 00:50:42;;;;;;;13.27;11.90;;;14.50;99.90;;;;;;4943209;28;20187;-89
2021/07/20 00:53:10;;;;;;;12.03;10.90;;;14.40;99.90;;;;;;4940382;29;20182;-89
2021/07/20 00:55:37;;;;;;;16.90;10.50;;;14.30;99.90;;;;;;4940252;29;20522;-89
2021/07/20 00:58:05;;;;;;;14.33;11.70;;;14.40;99.90;;;;;;4940310;29;21015;-89
2021/07/20 01:00:31;;;;;;;13.30;11.90;;;14.20;99.90;;;;;;4941324;29;20419;-88
2021/07/20 01:02:57;;;;;;;14.40;11.97;;;14.20;99.90;;;;;;4944474;29;20427;-88
2021/07/20 01:05:25;;;;;;;13.73;11.50;;;14.10;98.60;;;;;;4967105;29;20462;-89
2021/07/20 01:07:51;;;;;;;12.90;11.40;;;14.20;98.40;;;;;;4946535;29;20466;-89
2021/07/20 01:10:18;;;;;;;11.80;10.70;;;14.20;95.80;;;;;;4945972;29;20417;-89
2021/07/20 01:12:46;;;;;;;12.00;10.90;;;14.20;96.50;;;;;;4965189;29;20426;-89
2021/07/20 01:15:13;;;;;;;17.40;11.67;;;14.30;95.50;;;;;;4946608;29;20485;-88
2021/07/20 01:17:40;;;;;;;12.83;11.30;;;14.20;95.80;;;;;;4947009;29;20430;-89
2021/07/20 01:20:27;;;;;;;14.00;12.50;;;14.00;95.70;;;;;;4948776;29;20936;-88
2021/07/20 01:23:17;;;;;;;14.20;12.20;;;14.00;96.10;;;;;;4946078;29;20502;-88
2021/07/20 01:25:44;;;;;;;13.17;11.40;;;14.20;96.00;;;;;;4947145;29;20505;-89
2021/07/20 01:28:17;;;;;;;14.27;12.33;;;14.30;95.70;;;;;;4946160;29;20977;-89
2021/07/20 01:30:44;;;;;;;16.83;12.47;;;14.20;95.60;;;;;;4945858;29;20446;-89
2021/07/20 01:33:12;;;;;;;14.07;11.87;;;14.00;96.10;;;;;;4945983;29;20457;-89
2021/07/20 01:35:40;;;;;;;14.03;11.70;;;14.00;96.50;;;;;;4963757;29;20411;-89
2021/07/20 01:38:08;;;;;;;16.07;11.87;;;13.90;96.40;;;;;;4947192;29;20429;-89
2021/07/20 01:40:37;;;;;;;15.13;12.10;;;13.80;97.20;;;;;;4946843;29;20419;-89
2021/07/20 01:43:05;;;;;;;13.97;12.13;;;13.90;96.00;;;;;;4946980;29;20426;-89
2021/07/20 01:45:33;;;;;;;12.53;11.30;;;13.90;95.80;;;;;;4948066;29;20421;-88
2021/07/20 01:48:02;;;;;;;13.30;11.93;;;13.90;95.50;;;;;;4957041;29;20507;-89
2021/07/20 01:50:28;;;;;;;12.87;10.90;;;13.60;96.10;;;;;;4961522;28;20496;-88
2021/07/20 01:52:55;;;;;;;13.43;11.90;;;13.70;96.80;;;;;;4961795;28;20411;-89
2021/07/20 01:55:24;;;;;;;40.80;13.50;;;13.70;97.00;;;;;;4960831;29;20434;-88
2021/07/20 01:57:51;;;;;;;15.97;11.83;;;13.60;96.80;;;;;;4954862;29;20418;-89
2021/07/20 02:00:18;;;;;;;18.93;11.93;;;13.70;96.80;;;;;;4949997;29;20426;-90
2021/07/20 02:03:12;;;;;;;13.20;11.50;;;13.80;96.90;;;;;;4968559;29;20426;-89
2021/07/20 02:08:28;;;;;;;15.03;12.53;;;13.70;96.50;;;;;;4967604;29;20477;-89
2021/07/20 02:11:08;;;;;;;15.17;11.43;;;13.60;97.00;;;;;;4947069;29;20414;-88
2021/07/20 02:13:44;;;;;;;12.80;11.40;;;13.50;95.50;;;;;;4947349;29;20422;-90
2021/07/20 02:16:13;;;;;;;17.00;12.50;;;13.60;97.00;;;;;;4948120;29;20426;-89
2021/07/20 02:18:50;;;;;;;15.37;11.70;;;13.70;97.10;;;;;;4948347;29;20429;-89
2021/07/20 02:21:18;;;;;;;13.43;11.47;;;14.90;96.10;;;;;;4948170;29;20407;-89
2021/07/20 02:23:46;;;;;;;11.80;10.60;;;13.80;97.00;;;;;;4950583;29;20422;-89
2021/07/20 02:26:13;;;;;;;14.50;11.73;;;13.70;96.50;;;;;;4948415;29;20415;-89
2021/07/20 02:28:40;;;;;;;15.17;12.77;;;13.60;96.70;;;;;;4945772;29;20423;-89
2021/07/20 02:31:06;;;;;;;14.03;11.33;;;13.60;96.90;;;;;;4946475;29;20462;-89
2021/07/20 02:33:34;;;;;;;12.90;11.00;;;13.40;97.10;;;;;;4946207;29;20432;-89
2021/07/20 02:36:00;;;;;;;16.63;13.77;;;14.70;96.50;;;;;;4945750;29;20422;-89
2021/07/20 02:38:26;;;;;;;15.93;12.40;;;13.40;97.10;;;;;;4945736;29;20430;-89
2021/07/20 02:40:52;;;;;;;16.47;12.00;;;13.30;98.20;;;;;;4963078;29;20179;-89
2021/07/20 02:43:19;;;;;;;15.67;13.23;;;13.30;96.80;;;;;;4946180;29;20175;-89
2021/07/20 02:45:46;;;;;;;14.90;11.93;;;13.20;97.10;;;;;;4946233;29;20439;-89
2021/07/20 02:48:13;;;;;;;15.13;12.20;;;13.20;97.00;;;;;;4946502;29;20543;-90
2021/07/20 02:50:40;;;;;;;15.93;13.40;;;13.10;96.80;;;;;;4948157;29;20434;-89
2021/07/20 02:53:07;;;;;;;17.87;14.30;;;12.40;96.50;;;;;;4947647;29;20910;-89
2021/07/20 02:55:35;;;;;;;20.03;13.50;;;11.50;95.60;;;;;;4949550;29;20478;-89
2021/07/20 02:58:04;;;;;;;18.43;14.07;;;13.30;96.60;;;;;;4947803;29;20433;-89
2021/07/20 03:00:30;;;;;;;17.57;12.50;;;13.30;97.80;;;;;;4964044;29;20422;-89
2021/07/20 03:02:56;;;;;;;14.30;12.80;;;13.30;96.80;;;;;;4946591;29;20426;-87
2021/07/20 03:05:22;;;;;;;14.97;12.37;;;13.20;97.00;;;;;;4942951;28;20532;-90
2021/07/20 03:07:55;;;;;;;14.60;12.20;;;13.20;97.40;;;;;;4943178;29;20211;-89
2021/07/20 03:10:24;;;;;;;18.47;12.90;;;13.10;97.30;;;;;;4944502;29;20415;-89
2021/07/20 03:12:53;;;;;;;17.37;12.70;;;13.10;97.40;;;;;;4943722;29;20416;-89
2021/07/20 03:15:19;;;;;;;17.30;13.33;;;13.00;97.80;;;;;;4942529;29;20930;-89
2021/07/20 03:17:46;;;;;;;16.00;12.97;;;13.00;97.70;;;;;;4942567;29;20431;-89
2021/07/20 03:20:15;;;;;;;16.73;13.53;;;13.10;98.10;;;;;;4942631;29;20241;-89
2021/07/20 03:22:42;;;;;;;18.30;13.53;;;13.20;98.20;;;;;;4943232;29;20424;-89
2021/07/20 03:25:10;;;;;;;20.20;14.17;;;13.00;98.60;;;;;;4946921;29;20434;-88
2021/07/20 03:27:39;;;;;;;20.43;14.23;;;13.20;98.60;;;;;;4948026;29;20521;-89
2021/07/20 03:30:07;;;;;;;21.13;13.87;;;13.00;99.00;;;;;;4948039;29;20420;-89
2021/07/20 03:32:34;;;;;;;19.00;13.70;;;13.10;99.20;;;;;;4952147;29;20435;-88
2021/07/20 03:35:00;;;;;;;21.03;13.97;;;13.00;99.20;;;;;;4955813;28;20435;-88
2021/07/20 03:37:26;;;;;;;16.70;12.80;;;13.00;99.30;;;;;;4953772;29;20438;-90
2021/07/20 03:39:53;;;;;;;17.23;14.03;;;13.40;99.70;;;;;;4942950;29;20427;-89
2021/07/20 03:42:22;;;;;;;21.60;15.50;;;13.00;99.50;;;;;;4943603;29;20239;-90
2021/07/20 03:44:48;;;;;;;18.50;13.80;;;14.00;98.70;;;;;;4942066;29;20415;-90
2021/07/20 03:47:16;;;;;;;20.27;14.33;;;13.20;99.40;;;;;;4941616;29;20471;-90
2021/07/20 03:49:43;;;;;;;20.50;14.50;;;13.20;99.40;;;;;;4940759;29;20425;-89
2021/07/20 03:52:10;;;;;;;17.53;12.60;;;13.10;99.40;;;;;;4940516;29;20419;-90
2021/07/20 03:54:36;;;;;;;17.10;13.50;;;13.10;99.50;;;;;;4940921;29;20423;-90
2021/07/20 03:57:03;;;;;;;19.57;13.33;;;13.10;99.50;;;;;;4939681;29;20481;-89
2021/07/20 03:59:33;;;;;;;18.87;13.67;;;13.20;99.70;;;;;;4953644;28;20498;-88
2021/07/20 04:02:02;;;;;;;20.93;14.70;;;13.20;99.60;;;;;;4956700;28;20441;-89
2021/07/20 04:04:41;;;;;;;18.50;14.53;;;13.20;99.60;;;;;;4959241;28;20462;-91
2021/07/20 04:07:18;;;;;;;16.90;13.13;;;14.30;98.90;;;;;;4943966;29;20523;-90
2021/07/20 04:09:45;;;;;;;18.30;12.50;;;13.10;99.60;;;;;;4944238;29;20552;-90
2021/07/20 04:12:15;;;;;;;20.80;14.60;;;13.30;99.60;;;;;;4944355;29;20510;-90
2021/07/20 04:14:43;;;;;;;20.33;14.80;;;13.20;99.90;;;;;;4943775;29;20417;-89
2021/07/20 04:17:11;;;;;;;15.87;12.87;;;13.10;99.60;;;;;;4944943;29;20414;-89
2021/07/20 04:19:38;;;;;;;16.50;13.13;;;13.10;99.90;;;;;;4954780;29;20454;-89
2021/07/20 04:22:05;;;;;;;15.23;13.57;;;13.60;98.70;;;;;;4955052;29;20407;-88
2021/07/20 04:24:31;;;;;;;16.77;13.07;;;13.40;99.40;;;;;;4965858;29;20426;-89
2021/07/20 04:26:58;;;;;;;15.37;12.73;;;13.50;99.30;;;;;;4945317;29;20469;-89
2021/07/20 04:29:26;;;;;;;17.07;13.50;;;13.50;99.20;;;;;;4945308;28;20418;-90
2021/07/20 04:31:54;;;;;;;15.00;11.80;;;13.60;99.10;;;;;;4944626;29;20842;-89
2021/07/20 04:34:21;;;;;;;18.37;13.60;;;13.60;98.80;;;;;;4945442;29;20509;-88
2021/07/20 04:36:47;;;;;;;15.67;11.60;;;13.60;98.70;;;;;;4962518;29;20502;-89
2021/07/20 04:39:14;;;;;;;15.37;12.43;;;13.60;98.70;;;;;;4945036;29;20458;-89
2021/07/20 04:41:41;;;;;;;15.87;12.90;;;13.70;98.70;;;;;;4947302;29;20437;-90
2021/07/20 04:44:08;;;;;;;20.47;12.33;;;13.70;98.90;;;;;;4947254;29;20426;-88
2021/07/20 04:46:34;;;;;;;17.00;12.10;;;13.70;98.20;;;;;;4946698;28;20464;-89
2021/07/20 04:49:03;;;;;;;13.93;11.60;;;13.80;98.40;;;;;;4964587;29;20464;-89
2021/07/20 04:51:30;;;;;;;14.30;12.83;;;14.00;98.20;;;;;;4947649;29;20481;-90
2021/07/20 04:53:56;;;;;;;13.57;12.27;;;13.40;97.10;;;;;;4947917;29;20446;-90
2021/07/20 04:56:22;;;;;;;15.77;12.33;;;14.30;97.30;;;;;;4946792;29;20403;-89
2021/07/20 04:58:48;;;;;;;16.10;11.23;;;14.50;96.60;;;;;;4947426;29;20494;-90
2021/07/20 05:01:14;;;;;;;14.87;12.57;;;14.70;95.40;;;;;;4948018;29;20469;-89
2021/07/20 05:03:49;;;;;;;19.53;13.93;;;14.50;94.50;;;;;;4945035;29;20479;-87
2021/07/20 05:06:17;;;;;;;14.00;11.70;;;15.60;93.80;;;;;;4950661;29;20407;-90
2021/07/20 05:08:44;;;;;;;16.47;14.70;;;15.10;93.50;;;;;;4951425;29;20442;-90
2021/07/20 05:11:12;;;;;;;15.40;11.93;;;17.00;92.90;;;;;;4952239;29;20450;-89
2021/07/20 05:13:41;;;;;;;15.83;11.57;;;15.50;92.20;;;;;;4951909;29;20487;-90
2021/07/20 05:16:07;;;;;;;15.37;12.33;;;16.40;90.60;;;;;;4948802;29;20892;-90
2021/07/20 05:18:39;;;;;;;13.27;11.40;;;16.60;90.70;;;;;;4951320;29;20427;-89
2021/07/20 05:21:05;;;;;;;12.13;11.03;;;16.20;89.60;;;;;;4948874;29;20431;-89
2021/07/20 05:23:35;;;;;;;13.60;11.80;;;16.20;89.30;;;;;;4953696;28;20443;-90
2021/07/20 05:26:00;;;;;;;14.27;11.40;;;16.00;87.90;;;;;;4952184;29;20415;-91
2021/07/20 05:28:30;;;;;;;18.17;11.37;;;16.10;89.20;;;;;;4952211;28;20586;-90
2021/07/20 05:30:59;;;;;;;16.30;12.37;;;15.90;89.70;;;;;;4968379;29;20419;-89
2021/07/20 05:33:27;;;;;;;18.90;12.07;;;15.90;89.80;;;;;;4950765;29;20423;-91
2021/07/20 05:36:04;;;;;;;14.97;11.43;;;16.90;89.60;;;;;;4950233;29;20412;-90
2021/07/20 05:38:30;;;;;;;17.13;11.10;;;15.80;90.90;;;;;;4949740;29;20429;-91
2021/07/20 05:41:01;;;;;;;13.63;11.87;;;15.90;90.70;;;;;;4948412;29;20482;-91
2021/07/20 05:43:35;;;;;;;13.00;11.60;;;15.90;90.80;;;;;;4947840;29;20412;-90
2021/07/20 05:46:05;;;;;;;18.30;13.50;;;15.40;89.00;;;;;;4267197;28;10022495;-90
2021/07/20 05:48:32;;;;;;;16.13;11.30;;;15.90;91.10;;;;;;4950412;29;20217;-90
2021/07/20 05:51:03;;;;;;;14.70;12.43;;;16.30;89.80;;;;;;4947761;29;20419;-89
2021/07/20 05:53:32;;;;;;;12.90;11.60;;;16.00;91.50;;;;;;4916899;29;20458;-90
2021/07/20 05:56:04;;;;;;;14.20;11.93;;;16.10;90.70;;;;;;4950409;28;20423;-90
2021/07/20 05:58:31;;;;;;;16.63;11.63;;;16.60;87.90;;;;;;4946962;29;20404;-91
2021/07/20 06:01:02;;;;;;;15.60;12.07;;;16.50;90.70;;;;;;4947863;28;20469;-90
2021/07/20 06:03:31;;;;;;;13.73;11.80;;;16.30;89.50;;;;;;4951401;29;20435;-91
2021/07/20 06:05:59;;;;;;;16.23;12.80;;;16.60;89.60;;;;;;4947542;29;20438;-89
2021/07/20 06:08:27;;;;;;;14.27;12.17;;;19.40;90.80;;;;;;4968289;29;20564;-90
2021/07/20 06:10:56;;;;;;;12.80;11.50;;;17.10;88.40;;;;;;4968912;29;20850;-90
2021/07/20 06:13:34;;;;;;;15.17;12.17;;;17.60;85.10;;;;;;4978970;28;20520;-90
2021/07/20 06:16:00;;;;;;;15.43;12.03;;;19.10;80.80;;;;;;4969525;28;20513;-88
2021/07/20 06:18:32;;;;;;;18.30;13.63;;;18.30;80.00;;;;;;4988211;28;20503;-91
2021/07/20 06:21:08;;;;;;;19.23;12.23;;;18.80;81.10;;;;;;4989156;28;20445;-91
2021/07/20 06:23:41;;;;;;;16.97;12.40;;;19.20;81.60;;;;;;4985338;28;20457;-90
2021/07/20 06:26:07;;;;;;;18.00;14.30;;;19.90;76.50;;;;;;4954297;28;20428;-85
2021/07/20 06:28:35;;;;;;;21.97;14.53;;;21.80;77.20;;;;;;4970666;28;20461;-87
2021/07/20 06:31:01;;;;;;;19.00;13.63;;;19.70;73.30;;;;;;4971586;28;20934;-85
2021/07/20 06:33:28;;;;;;;14.43;13.03;;;20.40;86.00;;;;;;4952810;28;20465;-88
2021/07/20 06:35:54;;;;;;;16.57;14.43;;;20.60;83.50;;;;;;4956583;28;20430;-87
2021/07/20 06:38:21;;;;;;;16.87;15.17;;;21.70;83.10;;;;;;4950876;29;20414;-85
2021/07/20 06:40:55;;;;;;;18.10;15.23;;;20.80;79.10;;;;;;5000587;28;20435;-82
2021/07/20 06:43:22;;;;;;;17.27;15.47;;;21.10;80.50;;;;;;4973759;28;20432;-85
2021/07/20 06:45:48;;;;;;;15.07;13.47;;;21.00;78.90;;;;;;4970301;28;20453;-86
2021/07/20 06:48:16;;;;;;;20.00;15.97;;;21.00;77.50;;;;;;4970779;28;20461;-85
2021/07/20 06:50:42;;;;;;;23.63;16.33;;;20.60;78.20;;;;;;4953646;28;20493;-88
2021/07/20 06:53:11;;;;;;;16.90;15.13;;;20.00;80.10;;;;;;4971575;28;20449;-88
2021/07/20 06:55:42;;;;;;;17.57;14.90;;;19.50;83.00;;;;;;4954000;28;21034;-88
2021/07/20 06:58:10;;;;;;;22.43;15.73;;;20.30;84.60;;;;;;4956250;28;20932;-85
2021/07/20 07:00:35;;;;;;;18.07;16.00;;;19.80;83.30;;;;;;4972115;28;20665;-87
2021/07/20 07:03:03;;;;;;;21.03;14.53;;;19.80;83.90;;;;;;4954557;28;20520;-88
2021/07/20 07:05:30;;;;;;;22.93;15.47;;;19.90;85.50;;;;;;4973161;28;20236;-86
2021/07/20 07:07:58;;;;;;;18.43;14.90;;;21.20;84.20;;;;;;4954858;28;20639;-86
2021/07/20 07:10:24;;;;;;;20.10;13.33;;;21.70;82.10;;;;;;4972549;28;20417;-86
2021/07/20 07:12:51;;;;;;;17.37;12.50;;;;;;;;;;4972252;28;20418;-87
2021/07/20 07:15:18;;;;;;;15.13;13.63;;;;;;;;;;4972690;28;20406;-87
2021/07/20 07:17:49;;;;;;;15.63;13.97;;;22.50;88.60;;;;;;4954935;28;20449;-86
2021/07/20 07:20:27;;;;;;;17.90;13.13;;;23.70;66.70;;;;;;4971657;28;20499;-86
2021/07/20 07:22:54;;;;;;;15.47;13.70;;;24.10;54.10;;;;;;4954489;28;20483;-87
2021/07/20 07:25:21;;;;;;;15.87;13.33;;;24.40;53.50;;;;;;4955066;28;20425;-87
2021/07/20 07:27:49;;;;;;;19.70;13.90;;;23.80;52.60;;;;;;4971726;28;20515;-86
2021/07/20 07:30:17;;;;;;;17.10;12.20;;;23.80;52.40;;;;;;4972152;28;20416;-86
2021/07/20 07:32:43;;;;;;;14.23;12.50;;;23.70;52.10;;;;;;4955086;28;20487;-86
2021/07/20 07:35:10;;;;;;;13.20;11.90;;;;;;;;;;4955188;28;20467;-87
2021/07/20 07:37:37;;;;;;;13.60;11.97;;;24.50;77.80;;;;;;4972640;28;20494;-87
2021/07/20 07:40:06;;;;;;;12.20;10.93;;;25.80;75.00;;;;;;4974189;28;20741;-86
2021/07/20 07:42:34;;;;;;;13.03;10.90;;;25.90;46.10;;;;;;4614856;28;9999585;-85
2021/07/20 07:45:01;;;;;;;11.83;10.27;;;26.20;45.90;;;;;;4977086;28;20224;-87
2021/07/20 07:47:27;;;;;;;17.90;11.40;;;26.50;44.60;;;;;;4970327;28;20468;-88
2021/07/20 07:49:53;;;;;;;12.10;10.90;;;26.90;43.80;;;;;;4952655;28;20425;-86
2021/07/20 07:52:19;;;;;;;13.40;11.47;;;26.90;43.90;;;;;;4957056;28;20770;-91
2021/07/20 07:54:46;;;;;;;13.13;9.90;;;27.40;43.70;;;;;;4953000;28;20429;-86
2021/07/20 07:57:12;;;;;;;14.47;12.63;;;26.40;42.90;;;;;;4970712;28;20873;-84
2021/07/20 07:59:42;;;;;;;10.60;9.70;;;27.30;42.50;;;;;;4973771;28;20471;-85
2021/07/20 08:02:13;;;;;;;11.33;10.37;;;26.90;42.40;;;;;;4957612;28;20437;-86
2021/07/20 08:04:41;;;;;;;9.83;9.00;;;26.20;41.90;;;;;;4951308;28;20555;-89
2021/07/20 08:07:09;;;;;;;10.87;9.77;;;26.60;42.20;;;;;;4963087;28;20519;-81
2021/07/20 08:09:35;;;;;;;9.57;8.57;;;26.50;42.70;;;;;;4953265;28;20462;-86
2021/07/20 08:12:02;;;;;;;9.43;8.53;;;28.00;42.40;;;;;;4967591;28;20443;-87
2021/07/20 08:14:28;;;;;;;8.57;7.90;;;27.60;40.70;;;;;;4973554;28;20429;-88
2021/07/20 08:17:02;;;;;;;9.03;8.33;;;27.60;40.00;;;;;;4974382;28;20413;-88
2021/07/20 08:19:32;;;;;;;9.63;8.73;;;27.80;42.50;;;;;;4954196;28;20485;-88
2021/07/20 08:22:01;;;;;;;8.17;7.20;;;30.20;42.20;;;;;;4968816;28;20474;-87
2021/07/20 08:24:34;;;;;;;8.67;7.90;;;28.60;41.60;;;;;;4953312;28;20440;-87
2021/07/20 08:27:07;;;;;;;10.23;9.47;;;28.60;41.60;;;;;;4954778;28;20460;-88
2021/07/20 08:29:36;;;;;;;10.23;8.77;;;28.40;41.70;;;;;;4974111;28;20496;-87
2021/07/20 08:32:09;;;;;;;8.93;8.33;;;29.40;42.60;;;;;;4955829;28;20417;-86
2021/07/20 08:34:41;;;;;;;9.10;8.53;;;28.20;43.50;;;;;;4956643;28;20467;-86
2021/07/20 08:37:09;;;;;;;9.23;8.43;;;27.90;43.50;;;;;;4972893;28;20420;-86
2021/07/20 08:39:35;;;;;;;10.07;9.13;;;26.70;44.70;;;;;;4976173;28;20931;-86
2021/07/20 08:42:20;;;;;;;8.50;7.70;;;26.30;46.70;;;;;;4974967;28;20416;-84
2021/07/20 08:45:07;;;;;;;10.50;8.40;;;26.20;44.60;;;;;;4974700;28;20409;-86
2021/07/20 08:47:50;;;;;;;8.47;7.97;;;26.80;42.90;;;;;;4974367;28;20461;-88
2021/07/20 08:50:18;;;;;;;9.57;8.90;;;27.20;44.10;;;;;;4957652;28;20428;-86
2021/07/20 08:53:05;;;;;;;9.30;8.40;;;27.30;45.10;;;;;;4956843;28;20618;-85
2021/07/20 08:55:37;;;;;;;12.20;9.30;;;27.00;46.60;;;;;;4978782;28;20406;-86
2021/07/20 08:58:05;;;;;;;10.97;10.03;;;26.10;46.20;;;;;;4974557;28;20405;-86
2021/07/20 09:00:43;;;;;;;11.17;9.73;;;25.90;44.40;;;;;;4974796;28;20495;-87
2021/07/20 09:03:08;;;;;;;9.90;9.00;;;27.30;45.90;;;;;;4959788;28;20724;-86
2021/07/20 09:05:53;;;;;;;9.70;8.70;;;25.50;44.50;;;;;;4963725;28;20471;-88
2021/07/20 09:08:37;;;;;;;11.43;10.30;;;26.90;42.30;;;;;;4961513;28;20574;-88
2021/07/20 09:11:25;;;;;;;11.17;10.27;;;26.80;41.20;;;;;;4974469;28;20401;-87
2021/07/20 09:13:57;;;;;;;10.63;9.73;;;26.50;58.50;;;;;;4975306;28;20413;-88
2021/07/20 09:16:33;;;;;;;10.40;9.40;;;25.30;53.00;;;;;;4957483;28;20971;-87
2021/07/20 09:19:07;;;;;;;11.90;10.20;;;25.00;54.20;;;;;;4974419;28;20405;-89
2021/07/20 09:21:38;;;;;;;13.03;10.90;;;24.10;50.30;;;;;;4975051;28;20422;-87
2021/07/20 09:24:11;;;;;;;11.63;10.50;;;27.10;53.60;;;;;;4974780;28;20436;-87
2021/07/20 09:26:47;;;;;;;10.60;9.53;;;27.40;52.10;;;;;;4974451;28;20460;-86
2021/07/20 09:29:18;;;;;;;11.07;10.03;;;27.40;44.20;;;;;;4975078;28;20451;-87
2021/07/20 09:31:46;;;;;;;11.43;9.60;;;28.40;45.10;;;;;;4973232;28;20470;-88
2021/07/20 09:34:20;;;;;;;9.47;8.67;;;29.20;38.80;;;;;;4957727;28;20426;-87
2021/07/20 09:37:06;;;;;;;10.37;9.20;;;29.90;37.00;;;;;;4629817;28;10001098;-88
2021/07/20 09:39:49;;;;;;;9.67;9.07;;;30.20;36.20;;;;;;4955824;28;20422;-90
2021/07/20 09:42:30;;;;;;;10.23;9.43;;;;;;;;;;4972235;28;20619;-88
2021/07/20 09:45:21;;;;;;;9.10;8.50;;;32.20;45.90;;;;;;4971152;28;20802;-86
2021/07/20 09:47:57;;;;;;;10.30;9.30;;;32.70;46.30;;;;;;4971550;28;20622;-88
2021/07/20 09:50:25;;;;;;;10.57;9.80;;;31.80;37.40;;;;;;4973241;28;20416;-87
2021/07/20 09:52:54;;;;;;;10.20;9.50;;;31.10;33.80;;;;;;4955273;28;20512;-88
2021/07/20 09:55:35;;;;;;;10.13;9.23;;;31.10;34.20;;;;;;4954643;28;20418;-86
2021/07/20 09:58:35;;;;;;;9.93;9.30;;;32.20;34.30;;;;;;4968453;28;20764;-89
2021/07/20 10:01:20;;;;;;;11.00;10.00;;;32.20;32.80;;;;;;4950101;28;20426;-87
2021/07/20 10:04:05;;;;;;;10.40;9.60;;;;;;;;;;4973940;28;20449;-90
2021/07/20 10:07:08;;;;;;;10.80;10.10;;;33.50;51.90;;;;;;4956851;28;20920;-87
2021/07/20 10:09:45;;;;;;;10.10;9.50;;;32.80;34.00;;;;;;4958958;28;20422;-88
2021/07/20 10:12:33;;;;;;;10.80;10.00;;;31.90;35.10;;;;;;4974223;28;20413;-86
2021/07/20 10:15:03;;;;;;;8.53;7.93;;;32.10;32.70;;;;;;4612833;28;10000216;-87
2021/07/20 10:17:43;;;;;;;8.73;8.13;;;32.50;31.50;;;;;;4954463;28;20511;-89
2021/07/20 10:20:11;;;;;;;9.67;8.97;;;33.30;42.30;;;;;;4973821;28;20421;-87
2021/07/20 10:22:46;;;;;;;7.83;7.43;;;32.70;34.80;;;;;;4953857;28;20757;-83
2021/07/20 10:25:27;;;;;;;9.37;8.27;;;33.10;31.10;;;;;;4954723;28;20420;-89
2021/07/20 10:27:57;;;;;;;8.53;8.03;;;33.60;34.90;;;;;;4955737;28;20477;-89
2021/07/20 10:30:26;;;;;;;8.80;8.30;;;34.20;34.50;;;;;;4973944;28;20413;-86
2021/07/20 10:33:13;;;;;;;11.23;9.30;;;31.80;30.10;;;;;;4957377;28;20422;-88
2021/07/20 10:35:49;;;;;;;13.50;10.00;;;31.70;31.00;;;;;;4974290;28;20756;-86
2021/07/20 10:38:24;;;;;;;9.17;8.57;;;30.00;33.00;;;;;;4975224;28;20437;-86
2021/07/20 10:40:51;;;;;;;9.40;8.63;;;29.80;32.90;;;;;;4975864;28;20450;-88
2021/07/20 10:43:39;;;;;;;10.33;9.63;;;29.50;33.50;;;;;;4975391;28;20772;-88
2021/07/20 10:46:07;;;;;;;10.00;9.20;;;29.10;33.80;;;;;;4957914;28;20440;-86
2021/07/20 10:48:39;;;;;;;9.53;8.77;;;28.90;34.80;;;;;;4974447;28;20469;-85
2021/07/20 10:51:12;;;;;;;10.17;9.20;;;29.00;34.30;;;;;;4957113;28;20422;-85
2021/07/20 10:53:58;;;;;;;18.13;12.07;;;30.20;33.60;;;;;;4975129;28;20456;-86
2021/07/20 10:56:40;;;;;;;13.10;11.90;;;29.90;32.10;;;;;;4975933;28;20455;-84
2021/07/20 10:59:33;;;;;;;9.10;8.30;;;31.50;33.30;;;;;;4975189;28;20445;-85
2021/07/20 11:02:23;;;;;;;14.80;13.50;;;30.90;32.10;;;;;;4977723;28;20433;-86
2021/07/20 11:05:02;;;;;;;9.77;9.07;;;31.80;31.30;;;;;;4977641;28;20468;-87
2021/07/20 11:07:42;;;;;;;11.87;10.40;;;32.30;30.60;;;;;;4986079;28;20546;-86
2021/07/20 11:10:10;;;;;;;10.20;9.40;;;32.40;30.30;;;;;;4985610;28;20398;-87
2021/07/20 11:12:41;;;;;;;10.40;9.60;;;32.50;30.80;;;;;;4960202;28;20522;-80
2021/07/20 11:15:20;;;;;;;10.20;9.20;;;31.90;30.50;;;;;;4981987;28;20406;-91
2021/07/20 11:17:52;;;;;;;9.80;9.00;;;31.60;30.50;;;;;;4967315;28;20440;-89
2021/07/20 11:20:21;;;;;;;8.53;7.83;;;32.40;30.80;;;;;;4983021;28;20409;-89
2021/07/20 11:22:53;;;;;;;10.93;9.93;;;33.80;29.30;;;;;;4967316;28;20426;-93
2021/07/20 11:25:41;;;;;;;9.23;8.53;;;34.10;32.00;;;;;;4984666;28;20401;-90
2021/07/20 11:28:38;;;;;;;9.33;8.67;;;34.40;29.90;;;;;;4985432;28;20865;-87
2021/07/20 11:31:09;;;;;;;9.67;9.07;;;30.50;28.00;;;;;;4986862;28;20421;-89
2021/07/20 11:34:08;;;;;;;;;;;;;;;;;;;;;
2021/07/20 11:39:21;;;;;;;11.27;10.17;;;32.70;29.80;;;;;;5089059;28;20474;-92
2021/07/20 11:42:12;;;;;;;19.83;17.67;;;31.60;30.20;;;;;;5071800;28;20408;-90
2021/07/20 11:45:04;;;;;;;9.43;8.77;;;30.90;32.90;;;;;;5059545;28;20463;-90
2021/07/20 11:47:32;;;;;;;9.30;8.47;;;32.60;40.90;;;;;;5094706;23;20480;-91
2021/07/20 11:57:20;;;;;;;9.37;8.63;;;34.10;30.40;;;;;;5030535;28;20439;-90
2021/07/20 12:00:29;;;;;;;10.07;9.17;;;33.20;29.60;;;;;;5025956;28;20447;-91
2021/07/20 12:03:37;;;;;;;8.90;8.30;;;30.90;39.00;;;;;;5076479;22;20490;-90
2021/07/20 12:06:34;;;;;;;8.63;8.03;;;32.00;36.00;;;;;;5005696;28;20460;-90
2021/07/20 12:09:37;;;;;;;8.67;7.97;;;33.30;29.70;;;;;;5007788;28;20523;-91
2021/07/20 12:12:04;;;;;;;9.87;9.03;;;;;;;;;;5040521;28;20516;-90
2021/07/20 12:14:31;;;;;;;9.83;8.70;;;35.90;28.00;;;;;;5041914;28;20438;-92
2021/07/20 12:17:03;;;;;;;11.90;10.80;;;33.30;29.30;;;;;;5044902;28;20423;-90
2021/07/20 12:19:38;;;;;;;23.53;20.47;;;32.30;43.70;;;;;;5047890;28;20403;-88
2021/07/20 12:22:08;;;;;;;9.00;8.30;;;32.20;43.50;;;;;;5042040;28;20881;-87
2021/07/20 12:24:38;;;;;;;12.57;11.40;;;33.70;29.70;;;;;;5025977;28;20434;-90
2021/07/20 12:27:06;;;;;;;17.47;13.53;;;34.50;29.70;;;;;;5040829;28;20463;-87
2021/07/20 12:29:51;;;;;;;9.30;8.60;;;34.70;36.30;;;;;;5041968;28;20441;-90
2021/07/20 12:32:17;;;;;;;9.90;9.20;;;35.50;31.90;;;;;;5042153;28;20425;-88
2021/07/20 12:34:50;;;;;;;16.60;14.80;;;;;;;;;;5039379;28;20414;-90
2021/07/20 12:37:18;;;;;;;12.80;11.60;;;35.30;44.10;;;;;;5037108;28;20465;-88
2021/07/20 12:39:43;;;;;;;8.50;8.00;;;35.30;42.70;;;;;;5034368;28;20457;-87
2021/07/20 12:42:10;;;;;;;9.30;8.70;;;34.00;42.50;;;;;;5031669;28;20909;-87
2021/07/20 12:44:37;;;;;;;19.50;17.60;;;33.80;42.70;;;;;;5033470;28;20172;-87
2021/07/20 12:47:11;;;;;;;24.83;14.73;;;34.00;43.00;;;;;;5035985;28;20454;-86
2021/07/20 12:49:40;;;;;;;13.43;9.23;;;;;;;;;;5034986;28;20902;-89
2021/07/20 12:52:07;;;;;;;12.43;11.27;;;;;;;;;;5032404;28;20450;-87
2021/07/20 12:54:41;;;;;;;9.50;8.70;;;31.60;29.70;;;;;;5034050;28;20394;-86
2021/07/20 12:57:23;;;;;;;9.73;9.03;;;31.80;30.10;;;;;;5038295;28;20413;-91
2021/07/20 12:59:48;;;;;;;10.30;9.37;;;30.60;30.30;;;;;;5046771;28;20418;-90
2021/07/20 13:02:20;;;;;;;12.13;9.07;;;31.90;32.00;;;;;;5046359;28;20470;-89
2021/07/20 13:04:50;;;;;;;11.93;8.43;;;31.40;31.10;;;;;;5046003;28;20172;-91
2021/07/20 13:07:21;;;;;;;9.60;7.10;;;32.90;30.00;;;;;;5042765;28;21111;-90
2021/07/20 13:09:47;;;;;;;9.73;8.67;;;32.90;30.00;;;;;;5043742;28;20513;-93